createdAt,value
2022-12-27T00:01:21.722Z,6.26
2022-12-27T00:06:27.329Z,6.25
2022-12-27T00:11:31.059Z,6.19
2022-12-27T00:16:34.630Z,6.17
2022-12-27T00:21:38.909Z,6.28
2022-12-27T00:26:42.131Z,6.32
2022-12-27T00:31:45.387Z,6.26
2022-12-27T00:36:49.711Z,6.23
2022-12-27T00:41:52.672Z,6.33
2022-12-27T00:46:55.618Z,6.25
2022-12-27T00:51:59.937Z,6.32
2022-12-27T00:57:02.914Z,6.53
2022-12-27T01:02:06.008Z,6.38
2022-12-27T01:07:10.349Z,6.29
2022-12-27T01:12:13.265Z,6.27
2022-12-27T01:17:16.586Z,6.22
2022-12-27T01:22:20.959Z,6.25
2022-12-27T01:27:23.919Z,6.43
2022-12-27T01:32:26.908Z,6.56
2022-12-27T01:37:31.539Z,6.49
2022-12-27T01:42:51.881Z,6.37
2022-12-27T01:47:58.347Z,6.32
2022-12-27T01:53:08.422Z,6.39
2022-12-27T01:58:14.878Z,6.45
2022-12-27T02:03:21.398Z,6.40
2022-12-27T02:08:37.990Z,6.39
2022-12-27T02:13:43.221Z,6.40
2022-12-27T02:18:46.779Z,6.28
2022-12-27T02:24:13.975Z,6.28
2022-12-27T02:29:44.926Z,6.18
2022-12-27T02:34:55.319Z,6.24
2022-12-27T02:40:19.681Z,6.20
2022-12-27T02:45:44.544Z,6.15
2022-12-27T02:51:15.082Z,6.18
2022-12-27T02:56:43.758Z,6.06
2022-12-27T03:02:11.732Z,6.03
2022-12-27T03:07:27.414Z,5.94
2022-12-27T03:13:01.144Z,5.95
2022-12-27T03:18:09.717Z,5.88
2022-12-27T03:23:30.676Z,5.93
2022-12-27T03:28:51.634Z,6.03
2022-12-27T03:34:19.444Z,6.04
2022-12-27T03:39:28.828Z,5.94
2022-12-27T03:44:31.986Z,5.86
2022-12-27T03:49:39.261Z,5.78
2022-12-27T03:54:44.009Z,5.70
2022-12-27T03:59:47.203Z,5.66
2022-12-27T04:04:51.679Z,5.58
2022-12-27T04:10:11.907Z,5.53
2022-12-27T04:15:32.775Z,5.48
2022-12-27T04:20:54.387Z,5.49
2022-12-27T04:26:15.219Z,5.49
2022-12-27T04:31:36.158Z,5.49
2022-12-27T04:36:40.737Z,5.50
2022-12-27T04:42:00.875Z,5.70
2022-12-27T04:47:21.376Z,5.77
2022-12-27T04:52:43.438Z,5.71
2022-12-27T04:57:46.584Z,5.75
2022-12-27T05:02:49.879Z,5.77
2022-12-27T05:08:12.238Z,5.78
2022-12-27T05:13:32.711Z,5.69
2022-12-27T05:18:35.630Z,5.68
2022-12-27T05:24:04.919Z,5.72
2022-12-27T05:29:09.131Z,5.78
2022-12-27T05:34:12.081Z,5.79
2022-12-27T05:39:16.462Z,5.89
2022-12-27T05:44:19.458Z,5.80
2022-12-27T05:49:22.379Z,5.66
2022-12-27T05:54:26.798Z,5.68
2022-12-27T05:59:29.646Z,5.87
2022-12-27T06:04:32.584Z,5.88
2022-12-27T06:09:36.944Z,5.70
2022-12-27T06:14:41.340Z,5.61
2022-12-27T06:19:44.262Z,5.48
2022-12-27T06:24:48.656Z,5.46
2022-12-27T06:29:51.567Z,5.34
2022-12-27T06:34:54.531Z,5.04
2022-12-27T06:39:58.867Z,5.13
2022-12-27T06:45:01.899Z,5.24
2022-12-27T06:50:05.481Z,5.28
2022-12-27T06:55:09.996Z,5.40
2022-12-27T07:00:14.225Z,5.38
2022-12-27T07:05:17.372Z,5.44
2022-12-27T07:10:21.824Z,5.42
2022-12-27T07:15:24.819Z,5.58
2022-12-27T07:20:27.949Z,5.46
2022-12-27T07:25:33.404Z,5.27
2022-12-27T07:30:36.444Z,5.18
2022-12-27T07:35:44.835Z,5.18
2022-12-27T07:40:49.453Z,5.18
2022-12-27T07:45:52.576Z,5.18
2022-12-27T07:50:56.667Z,5.20
2022-12-27T07:56:01.035Z,5.19
2022-12-27T08:01:04.660Z,5.28
2022-12-27T08:06:08.704Z,5.31
2022-12-27T08:11:13.245Z,5.21
2022-12-27T08:16:18.156Z,5.24
2022-12-27T08:21:21.156Z,5.27
2022-12-27T08:26:25.473Z,5.14
2022-12-27T08:31:28.393Z,5.22
2022-12-27T08:41:55.829Z,5.29
2022-12-27T08:46:59.560Z,5.07
2022-12-27T08:52:02.465Z,5.15
2022-12-27T08:57:07.062Z,5.15
2022-12-27T09:02:11.088Z,5.25
2022-12-27T09:07:14.162Z,5.33
2022-12-27T09:12:19.447Z,5.54
2022-12-27T09:17:22.360Z,5.71
2022-12-27T09:22:25.245Z,5.85
2022-12-27T09:27:29.561Z,5.88
2022-12-27T09:32:32.511Z,6.08
2022-12-27T09:37:35.418Z,6.48
2022-12-27T09:42:53.463Z,6.88
2022-12-27T09:48:01.843Z,7.22
2022-12-27T09:53:08.005Z,7.05
2022-12-27T09:58:24.031Z,7.11
2022-12-27T10:03:28.240Z,7.33
2022-12-27T10:08:38.575Z,7.46
2022-12-27T10:13:47.572Z,8.02
2022-12-27T10:19:03.528Z,8.18
2022-12-27T10:24:14.726Z,7.54
2022-12-27T10:29:22.585Z,7.16
2022-12-27T10:34:25.520Z,7.02
2022-12-27T10:39:30.295Z,7.14
2022-12-27T10:44:35.809Z,7.44
2022-12-27T10:49:40.050Z,7.48
2022-12-27T10:54:52.368Z,7.68
2022-12-27T11:00:19.491Z,7.65
2022-12-27T11:05:24.305Z,7.65
2022-12-27T11:10:28.688Z,7.45
2022-12-27T11:15:34.891Z,7.35
2022-12-27T11:20:40.357Z,7.08
2022-12-27T11:25:53.561Z,7.14
2022-12-27T11:31:00.306Z,7.25
2022-12-27T11:36:03.277Z,7.36
2022-12-27T11:41:09.444Z,7.51
2022-12-27T11:46:21.740Z,7.37
2022-12-27T11:51:56.039Z,7.29
2022-12-27T11:57:12.286Z,7.11
2022-12-27T12:02:36.976Z,7.01
2022-12-27T12:07:52.238Z,6.94
2022-12-27T12:13:11.201Z,7.02
2022-12-27T12:18:28.868Z,7.16
2022-12-27T12:23:47.207Z,7.00
2022-12-27T12:29:19.073Z,6.87
2022-12-27T12:34:39.349Z,6.76
2022-12-27T12:40:02.481Z,6.93
2022-12-27T12:45:21.701Z,6.87
2022-12-27T12:50:37.595Z,6.88
2022-12-27T12:55:48.653Z,6.95
2022-12-27T13:01:04.600Z,6.99
2022-12-27T13:06:18.651Z,7.05
2022-12-27T13:11:41.247Z,7.02
2022-12-27T13:16:51.728Z,7.10
2022-12-27T13:22:03.142Z,7.28
2022-12-27T13:27:13.236Z,7.25
2022-12-27T13:32:23.134Z,7.31
2022-12-27T13:37:35.651Z,7.33
2022-12-27T13:43:00.109Z,7.27
2022-12-27T13:48:12.877Z,7.30
2022-12-27T13:53:41.360Z,7.36
2022-12-27T13:58:59.374Z,7.36
2022-12-27T14:04:16.584Z,7.37
2022-12-27T14:10:01.835Z,7.44
2022-12-27T14:15:08.802Z,7.44
2022-12-27T14:20:27.325Z,7.45
2022-12-27T14:26:04.425Z,7.47
2022-12-27T14:31:38.057Z,7.45
2022-12-27T14:37:12.694Z,7.28
2022-12-27T14:42:32.379Z,7.20
2022-12-27T14:47:59.777Z,7.11
2022-12-27T14:53:37.264Z,7.00
2022-12-27T14:58:50.980Z,6.84
2022-12-27T15:04:07.460Z,6.75
2022-12-27T15:09:14.199Z,6.65
2022-12-27T15:14:29.456Z,6.59
2022-12-27T15:19:49.980Z,6.57
2022-12-27T15:25:04.799Z,6.65
2022-12-27T15:30:22.088Z,6.62
2022-12-27T15:35:35.187Z,6.59
2022-12-27T15:40:51.901Z,6.67
2022-12-27T15:46:05.310Z,6.71
2022-12-27T15:51:15.456Z,6.68
2022-12-27T15:56:28.994Z,6.65
2022-12-27T16:07:04.145Z,6.59
2022-12-27T16:12:13.143Z,6.57
2022-12-27T16:17:33.592Z,6.62
2022-12-27T16:22:40.642Z,6.66
2022-12-27T16:27:44.051Z,6.68
2022-12-27T16:32:49.518Z,6.72
2022-12-27T16:37:55.691Z,6.75
2022-12-27T16:43:25.935Z,6.75
2022-12-27T16:48:37.439Z,6.55
2022-12-27T16:54:13.021Z,6.72
2022-12-27T16:59:53.710Z,6.60
2022-12-27T17:05:01.542Z,6.50
2022-12-27T17:10:49.398Z,6.46
2022-12-27T17:16:01.148Z,6.46
2022-12-27T17:21:07.507Z,6.40
2022-12-27T17:26:24.098Z,6.47
2022-12-27T17:31:33.203Z,6.59
2022-12-27T17:36:45.424Z,6.60
2022-12-27T17:42:11.595Z,6.61
2022-12-27T17:47:27.011Z,6.62
2022-12-27T17:52:47.267Z,6.68
2022-12-27T17:57:56.373Z,6.69
2022-12-27T18:03:03.776Z,6.72
2022-12-27T18:08:08.531Z,6.74
2022-12-27T18:13:17.485Z,6.63
2022-12-27T18:18:25.056Z,6.73
2022-12-27T18:23:28.441Z,6.70
2022-12-27T18:28:33.783Z,6.73
2022-12-27T18:33:41.918Z,6.83
2022-12-27T18:38:47.503Z,6.82
2022-12-27T18:43:53.548Z,6.89
2022-12-27T18:49:02.154Z,6.96
2022-12-27T18:54:22.539Z,7.05
2022-12-27T18:59:29.847Z,7.03
2022-12-27T19:04:34.827Z,6.96
2022-12-27T19:09:40.777Z,6.79
2022-12-27T19:14:45.736Z,6.50
2022-12-27T19:19:51.514Z,6.66
2022-12-27T19:24:59.931Z,6.56
2022-12-27T19:30:03.079Z,6.59
2022-12-27T19:35:08.589Z,6.52
2022-12-27T19:40:15.182Z,6.49
2022-12-27T19:45:21.776Z,6.43
2022-12-27T19:50:26.138Z,6.53
2022-12-27T19:55:29.130Z,6.62
2022-12-27T20:00:32.079Z,6.63
2022-12-27T20:06:11.350Z,6.69
2022-12-27T20:11:01.854Z,6.76
2022-12-27T20:16:05.483Z,6.69
2022-12-27T20:21:13.211Z,6.72
2022-12-27T20:26:19.937Z,6.76
2022-12-27T20:31:24.114Z,6.79
2022-12-27T20:36:28.582Z,6.81
2022-12-27T20:41:31.674Z,6.88
2022-12-27T20:46:34.769Z,6.86
2022-12-27T20:51:41.882Z,6.88
2022-12-27T20:56:44.951Z,6.93
2022-12-27T21:01:53.041Z,6.94
2022-12-27T21:07:01.060Z,6.87
2022-12-27T21:12:07.206Z,6.74
2022-12-27T21:17:10.224Z,6.70
2022-12-27T21:22:14.566Z,6.52
2022-12-27T21:27:17.548Z,6.51
2022-12-27T21:32:20.543Z,6.53
2022-12-27T21:37:25.015Z,6.59
2022-12-27T21:42:27.979Z,6.57
2022-12-27T21:47:31.686Z,6.62
2022-12-27T21:52:36.044Z,6.58
2022-12-27T21:57:39.020Z,6.59
2022-12-27T22:02:42.080Z,6.50
2022-12-27T22:07:46.523Z,6.43
2022-12-27T22:12:49.493Z,6.33
2022-12-27T22:17:52.427Z,6.28
2022-12-27T22:22:56.786Z,6.23
2022-12-27T22:27:59.763Z,6.19
2022-12-27T22:33:04.906Z,6.17
2022-12-27T22:38:12.209Z,6.20
2022-12-27T22:43:15.350Z,6.18
2022-12-27T22:48:18.305Z,6.19
2022-12-27T22:53:22.654Z,6.20
2022-12-27T22:58:26.429Z,6.17
2022-12-27T23:03:29.401Z,6.19
2022-12-27T23:08:33.747Z,6.16
2022-12-27T23:13:36.604Z,6.13
2022-12-27T23:18:40.535Z,6.00
2022-12-27T23:23:45.078Z,6.13
2022-12-27T23:28:48.660Z,6.13
2022-12-27T23:33:52.812Z,6.11
2022-12-27T23:38:57.172Z,6.06
2022-12-27T23:44:03.570Z,6.10
2022-12-27T23:49:06.590Z,6.12
2022-12-27T23:54:10.867Z,6.17
2022-12-27T23:59:13.868Z,6.19
